createdAt,value
2019-06-26T00:00:27.825Z,48.51
2019-06-26T00:02:56.507Z,48.69
2019-06-26T00:05:25.037Z,48.73
2019-06-26T00:07:53.666Z,48.65
2019-06-26T00:10:22.195Z,50.28
2019-06-26T00:12:50.862Z,49.89
2019-06-26T00:15:19.548Z,50.37
2019-06-26T00:17:48.089Z,50.28
2019-06-26T00:20:17.066Z,50.63
2019-06-26T00:22:45.686Z,50.76
2019-06-26T00:25:14.389Z,51.71
2019-06-26T00:27:42.938Z,52.36
2019-06-26T00:30:12.170Z,52.70
2019-06-26T00:32:40.725Z,52.85
2019-06-26T00:35:08.628Z,52.81
2019-06-26T00:37:37.180Z,52.04
2019-06-26T00:40:07.765Z,51.00
2019-06-26T00:42:36.414Z,50.97
2019-06-26T00:45:07.461Z,52.51
2019-06-26T00:47:36.180Z,52.00
2019-06-26T00:50:06.866Z,51.86
2019-06-26T00:52:35.404Z,51.79
2019-06-26T00:55:07.391Z,52.08
2019-06-26T00:57:36.063Z,50.88
2019-06-26T01:00:10.025Z,50.58
2019-06-26T01:02:38.754Z,51.34
2019-06-26T01:05:12.078Z,52.44
2019-06-26T01:07:40.740Z,51.81
2019-06-26T01:10:10.858Z,51.07
2019-06-26T01:12:39.508Z,50.26
2019-06-26T01:15:08.499Z,50.68
2019-06-26T01:17:37.036Z,50.13
2019-06-26T01:20:08.721Z,52.16
2019-06-26T01:22:37.381Z,52.90
2019-06-26T01:25:06.455Z,52.42
2019-06-26T01:27:35.061Z,52.67
2019-06-26T01:30:05.408Z,52.41
2019-06-26T01:32:33.922Z,52.17
2019-06-26T01:35:03.242Z,52.14
2019-06-26T01:37:31.770Z,52.77
2019-06-26T01:40:00.303Z,53.43
2019-06-26T01:42:28.835Z,52.70
2019-06-26T01:44:57.380Z,52.93
2019-06-26T01:47:25.897Z,52.97
2019-06-26T01:49:54.450Z,53.57
2019-06-26T01:52:23.001Z,53.87
2019-06-26T01:54:51.533Z,54.06
2019-06-26T01:57:20.099Z,53.42
2019-06-26T01:59:48.655Z,54.54
2019-06-26T02:02:17.255Z,54.35
2019-06-26T02:04:45.794Z,54.35
2019-06-26T02:07:14.333Z,54.92
2019-06-26T02:09:42.933Z,54.64
2019-06-26T02:12:11.556Z,54.73
2019-06-26T02:14:40.083Z,54.91
2019-06-26T02:17:08.661Z,54.80
2019-06-26T02:19:37.190Z,54.33
2019-06-26T02:22:05.707Z,53.91
2019-06-26T02:24:34.279Z,53.66
2019-06-26T02:27:02.807Z,54.04
2019-06-26T02:29:31.361Z,53.59
2019-06-26T02:31:59.892Z,53.05
2019-06-26T02:34:28.425Z,53.34
2019-06-26T02:36:56.955Z,53.47
2019-06-26T02:39:25.510Z,53.73
2019-06-26T02:41:54.107Z,53.71
2019-06-26T02:44:22.647Z,53.76
2019-06-26T02:46:51.185Z,53.24
2019-06-26T02:49:19.727Z,53.61
2019-06-26T02:51:48.349Z,53.90
2019-06-26T02:54:16.984Z,51.76
2019-06-26T02:56:45.518Z,50.83
2019-06-26T02:59:14.049Z,50.99
2019-06-26T03:01:42.925Z,50.44
2019-06-26T03:04:11.471Z,50.59
2019-06-26T03:06:40.019Z,51.15
2019-06-26T03:09:08.628Z,51.37
2019-06-26T03:11:37.180Z,52.18
2019-06-26T03:14:05.771Z,52.65
2019-06-26T03:16:34.383Z,50.80
2019-06-26T03:19:02.921Z,51.61
2019-06-26T03:21:31.498Z,51.61
2019-06-26T03:24:00.024Z,51.82
2019-06-26T03:26:28.640Z,51.81
2019-06-26T03:28:57.197Z,51.91
2019-06-26T03:31:25.781Z,52.47
2019-06-26T03:33:54.399Z,51.96
2019-06-26T03:36:22.982Z,51.05
2019-06-26T03:38:51.493Z,52.10
2019-06-26T03:41:20.214Z,53.12
2019-06-26T03:43:48.726Z,52.57
2019-06-26T03:46:17.265Z,51.00
2019-06-26T03:48:45.806Z,52.58
2019-06-26T03:51:14.423Z,51.10
2019-06-26T03:53:42.971Z,52.18
2019-06-26T03:56:11.570Z,52.38
2019-06-26T03:58:40.070Z,49.52
2019-06-26T04:01:08.617Z,49.96
2019-06-26T04:03:37.136Z,49.96
2019-06-26T04:06:05.665Z,52.09
2019-06-26T04:08:34.187Z,52.34
2019-06-26T04:11:02.904Z,51.69
2019-06-26T04:13:31.355Z,51.08
2019-06-26T04:15:59.904Z,49.02
2019-06-26T04:18:28.433Z,48.89
2019-06-26T04:20:56.981Z,50.13
2019-06-26T04:23:25.522Z,51.54
2019-06-26T04:25:54.125Z,52.03
2019-06-26T04:28:22.988Z,51.61
2019-06-26T04:30:51.544Z,54.10
2019-06-26T04:33:20.085Z,54.06
2019-06-26T04:35:48.659Z,55.22
2019-06-26T04:38:17.174Z,50.82
2019-06-26T04:40:45.757Z,50.48
2019-06-26T04:43:14.305Z,50.85
2019-06-26T04:45:57.167Z,50.69
2019-06-26T04:48:13.889Z,51.61
2019-06-26T04:50:42.572Z,54.32
2019-06-26T04:53:11.122Z,54.41
2019-06-26T04:55:39.653Z,52.23
2019-06-26T04:58:08.303Z,50.17
2019-06-26T05:00:36.923Z,48.63
2019-06-26T05:03:05.799Z,48.90
2019-06-26T05:05:39.546Z,48.90
2019-06-26T05:08:04.730Z,49.33
2019-06-26T05:10:33.265Z,50.72
2019-06-26T05:13:01.874Z,53.81
2019-06-26T05:15:30.417Z,53.18
2019-06-26T05:17:58.946Z,51.52
2019-06-26T05:20:27.630Z,50.14
2019-06-26T05:22:56.158Z,50.09
2019-06-26T05:25:24.690Z,50.29
2019-06-26T05:27:53.236Z,50.83
2019-06-26T05:30:22.434Z,54.62
2019-06-26T05:32:50.965Z,55.80
2019-06-26T05:35:19.745Z,54.48
2019-06-26T05:37:48.252Z,51.65
2019-06-26T05:40:17.135Z,51.65
2019-06-26T05:42:45.715Z,54.75
2019-06-26T05:45:15.005Z,53.14
2019-06-26T05:47:43.515Z,55.56
2019-06-26T05:50:12.931Z,56.01
2019-06-26T05:52:43.057Z,54.52
2019-06-26T05:55:12.227Z,54.52
2019-06-26T05:57:41.879Z,55.16
2019-06-26T06:00:11.382Z,55.96
2019-06-26T06:02:39.990Z,56.87
2019-06-26T06:05:10.042Z,57.04
2019-06-26T06:07:38.784Z,57.74
2019-06-26T06:10:08.347Z,57.55
2019-06-26T06:12:36.964Z,57.96
2019-06-26T06:15:07.481Z,57.36
2019-06-26T06:17:36.279Z,57.56
2019-06-26T06:20:06.360Z,58.28
2019-06-26T06:22:34.962Z,58.28
2019-06-26T06:25:03.797Z,59.12
2019-06-26T06:27:32.456Z,57.44
2019-06-26T06:30:01.019Z,59.04
2019-06-26T06:32:29.572Z,57.85
2019-06-26T06:34:59.675Z,57.30
2019-06-26T06:37:28.330Z,58.56
2019-06-26T06:39:56.832Z,59.04
2019-06-26T06:42:25.407Z,59.15
2019-06-26T06:44:53.960Z,59.26
2019-06-26T06:47:22.522Z,60.23
2019-06-26T06:49:51.153Z,60.43
2019-06-26T06:52:19.769Z,60.03
2019-06-26T06:54:48.363Z,59.60
2019-06-26T06:57:20.115Z,57.95
2019-06-26T06:59:48.691Z,60.20
2019-06-26T07:02:17.291Z,57.71
2019-06-26T07:04:45.827Z,61.93
2019-06-26T07:07:14.350Z,61.93
2019-06-26T07:09:42.869Z,60.79
2019-06-26T07:12:11.468Z,59.80
2019-06-26T07:14:39.995Z,59.80
2019-06-26T07:17:19.912Z,59.24
2019-06-26T07:19:38.789Z,59.56
2019-06-26T07:22:07.537Z,57.58
2019-06-26T07:24:36.064Z,55.88
2019-06-26T07:27:04.582Z,54.12
2019-06-26T07:29:33.131Z,51.92
2019-06-26T07:32:01.669Z,50.76
2019-06-26T07:34:30.285Z,49.14
2019-06-26T07:36:58.802Z,48.84
2019-06-26T07:39:27.322Z,47.96
2019-06-26T07:41:55.868Z,47.50
2019-06-26T07:44:24.403Z,44.46
2019-06-26T07:46:52.926Z,45.20
2019-06-26T07:49:21.469Z,45.11
2019-06-26T07:51:49.999Z,43.63
2019-06-26T07:54:18.609Z,43.14
2019-06-26T07:56:47.116Z,41.58
2019-06-26T07:59:15.651Z,41.88
2019-06-26T08:01:44.196Z,42.24
2019-06-26T08:04:12.726Z,39.48
2019-06-26T08:06:41.281Z,39.22
2019-06-26T08:09:09.789Z,42.83
2019-06-26T08:11:38.386Z,39.99
2019-06-26T08:14:06.999Z,38.66
2019-06-26T08:16:35.623Z,38.10
2019-06-26T08:19:04.161Z,38.79
2019-06-26T08:21:32.703Z,40.09
2019-06-26T08:24:01.234Z,40.42
2019-06-26T08:26:29.859Z,37.89
2019-06-26T08:28:58.422Z,36.08
2019-06-26T08:31:26.950Z,39.27
2019-06-26T08:33:55.514Z,39.61
2019-06-26T08:36:24.011Z,40.48
2019-06-26T08:38:52.544Z,36.61
2019-06-26T08:41:21.163Z,36.41
2019-06-26T08:43:49.700Z,37.94
2019-06-26T08:46:18.236Z,39.13
2019-06-26T08:48:46.782Z,36.81
2019-06-26T08:51:15.306Z,33.80
2019-06-26T08:53:43.823Z,34.19
2019-06-26T08:56:12.363Z,31.91
2019-06-26T08:58:41.074Z,33.40
2019-06-26T09:01:09.605Z,37.19
2019-06-26T09:03:41.907Z,37.63
2019-06-26T09:06:08.401Z,35.61
2019-06-26T09:08:39.972Z,32.38
2019-06-26T09:11:08.504Z,35.49
2019-06-26T09:13:37.074Z,35.06
2019-06-26T09:16:05.565Z,32.86
2019-06-26T09:18:35.751Z,31.79
2019-06-26T09:21:04.437Z,30.71
2019-06-26T09:23:33.058Z,32.38
2019-06-26T09:26:01.622Z,31.32
2019-06-26T09:28:30.212Z,31.20
2019-06-26T09:30:58.917Z,31.67
2019-06-26T09:33:27.572Z,30.92
2019-06-26T09:35:56.212Z,30.39
2019-06-26T09:38:24.751Z,30.16
2019-06-26T09:40:53.318Z,28.93
2019-06-26T09:43:21.911Z,29.60
2019-06-26T09:45:50.424Z,29.65
2019-06-26T09:48:18.992Z,29.67
2019-06-26T09:50:47.545Z,29.44
2019-06-26T09:53:16.068Z,30.08
2019-06-26T09:55:44.612Z,27.72
2019-06-26T09:58:13.803Z,29.40
2019-06-26T10:00:42.453Z,30.49
2019-06-26T10:03:10.985Z,30.29
2019-06-26T10:05:39.541Z,31.18
2019-06-26T10:08:08.089Z,30.53
2019-06-26T10:10:36.601Z,31.37
2019-06-26T10:13:05.233Z,32.47
2019-06-26T10:15:34.157Z,32.78
2019-06-26T10:18:02.667Z,31.57
2019-06-26T10:20:31.227Z,31.87
2019-06-26T10:22:59.936Z,32.52
2019-06-26T10:25:28.450Z,32.41
2019-06-26T10:27:57.073Z,31.46
2019-06-26T10:30:25.740Z,31.48
2019-06-26T10:32:54.292Z,32.21
2019-06-26T10:35:23.010Z,32.13
2019-06-26T10:37:52.623Z,31.30
2019-06-26T10:40:21.455Z,30.17
2019-06-26T10:42:50.454Z,29.53
2019-06-26T10:45:19.544Z,29.32
2019-06-26T10:47:48.071Z,29.68
2019-06-26T10:50:17.513Z,28.74
2019-06-26T10:52:46.080Z,28.23
2019-06-26T10:55:14.945Z,28.47
2019-06-26T10:57:43.569Z,27.17
2019-06-26T11:00:14.013Z,27.22
2019-06-26T11:02:42.683Z,27.12
2019-06-26T11:05:13.422Z,27.63
2019-06-26T11:07:41.976Z,27.45
2019-06-26T11:10:11.334Z,25.99
2019-06-26T11:12:39.956Z,25.42
2019-06-26T11:15:09.254Z,24.80
2019-06-26T11:17:37.866Z,24.36
2019-06-26T11:20:09.911Z,24.42
2019-06-26T11:22:38.492Z,23.92
2019-06-26T11:25:08.122Z,24.49
2019-06-26T11:27:36.802Z,24.32
2019-06-26T11:30:10.383Z,24.54
2019-06-26T11:32:38.991Z,25.23
2019-06-26T11:35:08.246Z,25.07
2019-06-26T11:37:37.846Z,25.57
2019-06-26T11:40:08.027Z,24.11
2019-06-26T11:42:36.723Z,25.04
2019-06-26T11:45:07.668Z,25.43
2019-06-26T11:47:36.396Z,26.37
2019-06-26T11:50:09.887Z,26.82
2019-06-26T11:52:38.774Z,27.30
2019-06-26T11:55:11.350Z,26.52
2019-06-26T11:57:40.046Z,26.94
2019-06-26T12:00:11.917Z,27.30
2019-06-26T12:02:40.764Z,27.38
2019-06-26T12:05:10.166Z,26.88
2019-06-26T12:07:38.781Z,26.05
2019-06-26T12:10:09.654Z,25.87
2019-06-26T12:12:38.189Z,26.89
2019-06-26T12:15:07.914Z,27.08
2019-06-26T12:17:36.526Z,27.52
2019-06-26T12:20:17.903Z,26.98
2019-06-26T12:22:36.736Z,26.14
2019-06-26T12:25:06.398Z,25.79
2019-06-26T12:27:35.042Z,26.60
2019-06-26T12:30:05.211Z,26.62
2019-06-26T12:32:41.764Z,26.65
2019-06-26T12:35:07.868Z,27.41
2019-06-26T12:37:38.101Z,26.76
2019-06-26T12:40:08.109Z,27.47
2019-06-26T12:42:36.940Z,27.35
2019-06-26T12:45:07.539Z,28.01
2019-06-26T12:47:36.192Z,28.31
2019-06-26T12:50:07.036Z,27.66
2019-06-26T12:52:35.668Z,28.45
2019-06-26T12:55:06.293Z,28.76
2019-06-26T12:57:35.010Z,27.99
2019-06-26T13:00:05.478Z,27.16
2019-06-26T13:02:34.058Z,27.77
2019-06-26T13:05:02.892Z,27.77
2019-06-26T13:07:31.405Z,28.15
2019-06-26T13:10:00.010Z,28.89
2019-06-26T13:12:28.544Z,28.60
2019-06-26T13:14:57.143Z,28.13
2019-06-26T13:17:25.694Z,27.94
2019-06-26T13:19:54.270Z,28.37
2019-06-26T13:22:22.768Z,28.25
2019-06-26T13:24:51.322Z,29.80
2019-06-26T13:27:19.845Z,29.51
2019-06-26T13:29:48.398Z,29.41
2019-06-26T13:32:17.050Z,28.84
2019-06-26T13:34:45.525Z,28.26
2019-06-26T13:37:14.077Z,27.94
2019-06-26T13:39:42.594Z,28.55
2019-06-26T13:42:11.129Z,27.90
2019-06-26T13:44:39.681Z,28.61
2019-06-26T13:47:08.270Z,29.62
2019-06-26T13:49:36.819Z,29.06
2019-06-26T13:52:05.378Z,29.91
2019-06-26T13:54:33.934Z,30.76
2019-06-26T13:57:02.455Z,29.93
2019-06-26T13:59:30.998Z,29.34
2019-06-26T14:01:59.537Z,30.18
2019-06-26T14:04:28.053Z,31.06
2019-06-26T14:06:56.624Z,30.86
2019-06-26T14:09:25.179Z,31.03
2019-06-26T14:11:53.744Z,31.13
2019-06-26T14:14:37.732Z,31.34
2019-06-26T14:16:52.707Z,30.99
2019-06-26T14:19:21.237Z,31.05
2019-06-26T14:21:49.789Z,30.84
2019-06-26T14:24:18.315Z,31.15
2019-06-26T14:26:46.873Z,31.18
2019-06-26T14:29:20.783Z,31.14
2019-06-26T14:31:45.680Z,31.46
2019-06-26T14:34:14.210Z,32.08
2019-06-26T14:36:42.744Z,31.48
2019-06-26T14:39:11.375Z,31.45
2019-06-26T14:41:39.897Z,31.25
2019-06-26T14:44:08.507Z,31.81
2019-06-26T14:46:37.112Z,32.77
2019-06-26T14:49:05.644Z,31.53
2019-06-26T14:51:46.418Z,31.55
2019-06-26T14:54:04.578Z,31.07
2019-06-26T14:56:33.093Z,31.20
2019-06-26T14:59:02.445Z,31.67
2019-06-26T15:01:31.052Z,31.53
2019-06-26T15:04:00.249Z,31.90
2019-06-26T15:06:28.765Z,32.48
2019-06-26T15:08:57.344Z,32.44
2019-06-26T15:11:25.839Z,31.96
2019-06-26T15:13:54.404Z,31.84
2019-06-26T15:16:22.952Z,31.97
2019-06-26T15:18:51.486Z,31.97
2019-06-26T15:21:19.995Z,31.93
2019-06-26T15:23:48.604Z,32.21
2019-06-26T15:26:17.169Z,32.18
2019-06-26T15:28:45.755Z,31.78
2019-06-26T15:31:14.271Z,31.49
2019-06-26T15:33:42.820Z,30.92
2019-06-26T15:36:11.431Z,31.47
2019-06-26T15:38:39.992Z,31.33
2019-06-26T15:41:08.524Z,30.76
2019-06-26T15:43:37.076Z,31.16
2019-06-26T15:46:05.698Z,31.03
2019-06-26T15:48:34.219Z,31.11
2019-06-26T15:51:02.912Z,31.12
2019-06-26T15:53:31.425Z,31.13
2019-06-26T15:56:00.088Z,31.76
2019-06-26T15:58:28.610Z,31.87
2019-06-26T16:00:57.162Z,31.06
2019-06-26T16:03:25.714Z,31.17
2019-06-26T16:05:54.252Z,31.00
2019-06-26T16:08:22.799Z,30.84
2019-06-26T16:10:51.313Z,30.29
2019-06-26T16:13:20.077Z,30.27
2019-06-26T16:15:48.624Z,29.63
2019-06-26T16:18:33.679Z,30.05
2019-06-26T16:21:02.206Z,30.02
2019-06-26T16:23:30.721Z,30.01
2019-06-26T16:25:59.258Z,30.64
2019-06-26T16:28:27.910Z,31.00
2019-06-26T16:30:56.438Z,30.08
2019-06-26T16:33:25.021Z,30.07
2019-06-26T16:35:53.555Z,30.19
2019-06-26T16:38:22.144Z,30.15
2019-06-26T16:40:50.763Z,31.15
2019-06-26T16:43:19.355Z,31.35
2019-06-26T16:45:47.898Z,32.09
2019-06-26T16:48:16.418Z,32.13
2019-06-26T16:50:44.954Z,31.65
2019-06-26T16:53:13.487Z,32.12
2019-06-26T16:55:42.042Z,32.05
2019-06-26T16:58:10.567Z,32.39
2019-06-26T17:00:39.087Z,33.50
2019-06-26T17:03:07.734Z,34.58
2019-06-26T17:05:36.258Z,34.47
2019-06-26T17:08:04.984Z,34.25
2019-06-26T17:10:33.516Z,36.54
2019-06-26T17:13:02.128Z,36.88
2019-06-26T17:15:30.654Z,37.63
2019-06-26T17:17:59.182Z,39.10
2019-06-26T17:20:27.727Z,39.76
2019-06-26T17:23:05.740Z,36.38
2019-06-26T17:25:26.540Z,35.49
2019-06-26T17:27:55.163Z,36.92
2019-06-26T17:30:24.022Z,37.26
2019-06-26T17:32:52.563Z,39.26
2019-06-26T17:35:21.164Z,40.71
2019-06-26T17:37:49.871Z,41.51
2019-06-26T17:40:18.583Z,41.74
2019-06-26T17:42:47.158Z,41.72
2019-06-26T17:45:16.120Z,41.39
2019-06-26T17:47:44.738Z,41.82
2019-06-26T17:50:13.439Z,42.64
2019-06-26T17:52:41.966Z,43.09
2019-06-26T17:55:11.150Z,43.78
2019-06-26T17:57:39.839Z,44.25
2019-06-26T18:00:09.537Z,44.54
2019-06-26T18:02:38.050Z,45.03
2019-06-26T18:05:07.757Z,45.88
2019-06-26T18:07:36.241Z,46.61
2019-06-26T18:10:06.219Z,47.24
2019-06-26T18:12:34.744Z,47.59
2019-06-26T18:15:03.435Z,46.53
2019-06-26T18:17:31.956Z,47.23
2019-06-26T18:20:00.665Z,47.00
2019-06-26T18:22:29.224Z,47.64
2019-06-26T18:24:57.799Z,46.87
2019-06-26T18:27:26.369Z,47.41
2019-06-26T18:29:54.893Z,46.00
2019-06-26T18:32:23.441Z,46.05
2019-06-26T18:34:51.981Z,47.47
2019-06-26T18:37:20.626Z,48.58
2019-06-26T18:39:49.150Z,48.65
2019-06-26T18:42:17.668Z,47.92
2019-06-26T18:44:46.202Z,47.06
2019-06-26T18:47:14.756Z,46.96
2019-06-26T18:49:43.327Z,46.46
2019-06-26T18:52:11.884Z,46.31
2019-06-26T18:54:40.445Z,46.26
2019-06-26T18:57:08.976Z,46.29
2019-06-26T18:59:37.507Z,45.93
2019-06-26T19:02:06.100Z,46.17
2019-06-26T19:04:34.653Z,45.96
2019-06-26T19:07:03.188Z,45.66
2019-06-26T19:09:31.738Z,45.55
2019-06-26T19:12:00.385Z,45.55
2019-06-26T19:14:28.951Z,45.41
2019-06-26T19:16:57.489Z,45.44
2019-06-26T19:19:26.021Z,45.21
2019-06-26T19:21:54.545Z,45.60
2019-06-26T19:24:23.138Z,45.45
2019-06-26T19:26:51.627Z,44.67
2019-06-26T19:29:20.194Z,44.59
2019-06-26T19:34:36.207Z,44.09
2019-06-26T19:37:04.823Z,44.16
2019-06-26T19:39:33.380Z,43.60
2019-06-26T19:42:02.203Z,43.60
2019-06-26T19:44:31.131Z,43.89
2019-06-26T19:46:59.734Z,43.98
2019-06-26T19:49:28.289Z,43.71
2019-06-26T19:51:56.817Z,43.57
2019-06-26T19:54:27.834Z,43.93
2019-06-26T19:56:55.767Z,43.62
2019-06-26T19:59:24.289Z,43.51
2019-06-26T20:01:52.886Z,43.31
2019-06-26T20:04:21.490Z,43.13
2019-06-26T20:06:50.032Z,43.34
2019-06-26T20:09:18.614Z,42.92
2019-06-26T20:11:47.164Z,43.06
2019-06-26T20:14:15.678Z,42.73
2019-06-26T20:16:44.385Z,42.21
2019-06-26T20:19:12.901Z,41.94
2019-06-26T20:21:41.415Z,41.68
2019-06-26T20:24:10.038Z,41.83
2019-06-26T20:26:38.834Z,42.21
2019-06-26T20:29:07.453Z,42.32
2019-06-26T20:31:35.978Z,41.95
2019-06-26T20:34:04.567Z,41.44
2019-06-26T20:36:33.086Z,41.19
2019-06-26T20:39:01.735Z,41.24
2019-06-26T20:41:30.369Z,41.38
2019-06-26T20:43:58.925Z,41.41
2019-06-26T20:46:27.437Z,41.51
2019-06-26T20:48:55.969Z,41.32
2019-06-26T20:51:24.511Z,41.27
2019-06-26T20:53:53.338Z,40.87
2019-06-26T20:56:25.570Z,40.62
2019-06-26T20:58:53.827Z,40.47
2019-06-26T21:01:22.316Z,40.32
2019-06-26T21:03:50.862Z,39.93
2019-06-26T21:06:19.377Z,39.70
2019-06-26T21:08:47.913Z,39.75
2019-06-26T21:11:16.461Z,39.62
2019-06-26T21:13:45.090Z,39.44
2019-06-26T21:16:13.630Z,39.39
2019-06-26T21:18:42.422Z,39.47
2019-06-26T21:21:10.965Z,39.52
2019-06-26T21:23:39.481Z,39.55
2019-06-26T21:26:08.121Z,39.37
2019-06-26T21:28:36.763Z,39.26
2019-06-26T21:31:05.291Z,39.20
2019-06-26T21:33:33.825Z,38.96
2019-06-26T21:36:02.360Z,38.75
2019-06-26T21:38:30.959Z,38.75
2019-06-26T21:40:59.580Z,38.87
2019-06-26T21:43:28.611Z,38.91
2019-06-26T21:45:57.117Z,38.37
2019-06-26T21:48:25.724Z,37.84
2019-06-26T21:50:54.230Z,37.76
2019-06-26T21:53:22.836Z,37.36
2019-06-26T21:55:51.363Z,37.09
2019-06-26T21:58:20.059Z,37.04
2019-06-26T22:00:48.842Z,36.94
2019-06-26T22:03:17.744Z,37.01
2019-06-26T22:05:46.251Z,37.22
2019-06-26T22:08:14.862Z,36.85
2019-06-26T22:10:43.524Z,36.98
2019-06-26T22:13:12.035Z,36.70
2019-06-26T22:15:40.627Z,36.65
2019-06-26T22:18:09.176Z,36.94
2019-06-26T22:20:37.965Z,37.06
2019-06-26T22:23:06.550Z,36.73
2019-06-26T22:25:49.943Z,36.54
2019-06-26T22:28:05.386Z,36.55
2019-06-26T22:30:33.987Z,36.51
2019-06-26T22:33:02.612Z,36.52
2019-06-26T22:35:31.286Z,36.72
2019-06-26T22:37:59.877Z,36.75
2019-06-26T22:40:29.972Z,36.58
2019-06-26T22:42:58.497Z,36.49
2019-06-26T22:45:27.058Z,36.36
2019-06-26T22:47:55.964Z,36.42
2019-06-26T22:50:24.604Z,36.47
2019-06-26T22:52:53.168Z,36.59
2019-06-26T22:55:21.683Z,36.50
2019-06-26T22:57:50.271Z,36.43
2019-06-26T23:00:21.603Z,36.85
2019-06-26T23:02:50.139Z,37.12
2019-06-26T23:05:18.724Z,36.64
2019-06-26T23:07:47.249Z,36.15
2019-06-26T23:10:16.026Z,35.94
2019-06-26T23:12:44.741Z,36.04
2019-06-26T23:15:13.612Z,35.95
2019-06-26T23:17:42.169Z,35.63
2019-06-26T23:20:10.875Z,35.50
2019-06-26T23:22:39.399Z,35.44
2019-06-26T23:25:08.401Z,35.08
2019-06-26T23:27:36.921Z,35.08
2019-06-26T23:30:14.283Z,34.81
2019-06-26T23:32:42.994Z,34.75
2019-06-26T23:35:11.519Z,34.84
2019-06-26T23:37:40.058Z,35.11
2019-06-26T23:40:08.835Z,35.04
2019-06-26T23:42:37.436Z,34.14
2019-06-26T23:45:09.127Z,34.35
2019-06-26T23:47:38.428Z,34.18
2019-06-26T23:50:07.310Z,34.25
2019-06-26T23:52:35.878Z,33.85
2019-06-26T23:55:05.941Z,33.93
2019-06-26T23:57:34.563Z,34.16
